createdAt,value
2023-07-18T00:01:51.765Z,100.00
2023-07-18T00:04:18.974Z,100.00
2023-07-18T00:06:46.840Z,100.00
2023-07-18T00:09:14.102Z,100.00
2023-07-18T00:11:49.392Z,100.00
2023-07-18T00:14:18.307Z,100.00
2023-07-18T00:16:52.337Z,100.00
2023-07-18T00:19:20.919Z,100.00
2023-07-18T00:21:49.177Z,100.00
2023-07-18T00:24:17.694Z,100.00
2023-07-18T00:26:45.294Z,100.00
2023-07-18T00:29:12.722Z,100.00
2023-07-18T00:31:40.252Z,100.00
2023-07-18T00:34:07.770Z,100.00
2023-07-18T00:36:35.103Z,100.00
2023-07-18T00:39:02.713Z,100.00
2023-07-18T00:41:30.981Z,92.88
2023-07-18T00:43:58.553Z,90.28
2023-07-18T00:46:26.141Z,86.48
2023-07-18T00:48:53.455Z,86.62
2023-07-18T00:51:25.403Z,85.13
2023-07-18T00:53:54.359Z,84.04
2023-07-18T00:56:23.122Z,82.63
2023-07-18T00:58:50.853Z,80.62
2023-07-18T01:01:30.244Z,80.41
2023-07-18T01:03:57.841Z,79.33
2023-07-18T01:06:34.464Z,78.06
2023-07-18T01:09:01.892Z,78.13
2023-07-18T01:11:29.477Z,77.74
2023-07-18T01:13:57.915Z,77.63
2023-07-18T01:16:27.439Z,76.84
2023-07-18T01:18:55.326Z,76.33
2023-07-18T01:21:28.976Z,77.31
2023-07-18T01:23:56.522Z,76.98
2023-07-18T01:26:25.285Z,76.27
2023-07-18T01:28:52.903Z,76.19
2023-07-18T01:31:20.492Z,76.07
2023-07-18T01:33:49.224Z,76.27
2023-07-18T01:36:18.811Z,75.63
2023-07-18T01:38:46.430Z,75.94
2023-07-18T01:41:13.684Z,76.21
2023-07-18T01:43:41.162Z,76.18
2023-07-18T01:46:08.541Z,76.47
2023-07-18T01:48:36.260Z,76.51
2023-07-18T01:51:05.127Z,76.17
2023-07-18T01:53:32.519Z,75.82
2023-07-18T01:56:00.559Z,75.32
2023-07-18T01:58:28.008Z,75.54
2023-07-18T02:00:55.414Z,75.79
2023-07-18T02:03:22.957Z,76.16
2023-07-18T02:05:50.343Z,76.36
2023-07-18T02:08:18.781Z,76.85
2023-07-18T02:10:46.298Z,77.80
2023-07-18T02:13:13.841Z,78.91
2023-07-18T02:15:46.895Z,80.63
2023-07-18T02:18:14.332Z,82.84
2023-07-18T02:20:41.814Z,84.66
2023-07-18T02:23:09.133Z,85.87
2023-07-18T02:25:36.686Z,86.73
2023-07-18T02:28:04.105Z,88.20
2023-07-18T02:30:31.813Z,89.96
2023-07-18T02:32:59.124Z,92.00
2023-07-18T02:35:27.816Z,92.07
2023-07-18T02:37:56.453Z,93.92
2023-07-18T02:40:24.045Z,93.39
2023-07-18T02:42:51.281Z,95.45
2023-07-18T02:45:19.016Z,96.41
2023-07-18T02:47:47.334Z,96.27
2023-07-18T02:50:14.880Z,98.05
2023-07-18T02:52:44.506Z,98.14
2023-07-18T02:55:13.829Z,98.19
2023-07-18T02:57:41.632Z,97.77
2023-07-18T03:00:21.564Z,96.43
2023-07-18T03:02:50.799Z,97.31
2023-07-18T03:05:18.578Z,98.01
2023-07-18T03:07:48.076Z,98.61
2023-07-18T03:10:15.670Z,97.57
2023-07-18T03:12:45.087Z,97.96
2023-07-18T03:15:12.649Z,97.34
2023-07-18T03:17:39.932Z,97.85
2023-07-18T03:20:14.970Z,97.68
2023-07-18T03:22:42.399Z,97.23
2023-07-18T03:25:12.743Z,97.51
2023-07-18T03:27:42.595Z,98.16
2023-07-18T03:30:13.409Z,98.17
2023-07-18T03:32:43.727Z,98.09
2023-07-18T03:35:13.037Z,99.32
2023-07-18T03:37:40.622Z,99.17
2023-07-18T03:40:11.528Z,99.25
2023-07-18T03:42:39.110Z,99.13
2023-07-18T03:45:06.983Z,99.59
2023-07-18T03:47:34.509Z,98.52
2023-07-18T03:50:01.892Z,97.67
2023-07-18T03:52:29.853Z,98.17
2023-07-18T03:55:02.010Z,99.21
2023-07-18T03:57:29.586Z,100.00
2023-07-18T03:59:58.441Z,100.00
2023-07-18T04:02:26.374Z,100.00
2023-07-18T04:04:54.192Z,100.00
2023-07-18T04:07:21.904Z,100.00
2023-07-18T04:09:49.306Z,100.00
2023-07-18T04:12:18.225Z,100.00
2023-07-18T04:14:45.332Z,100.00
2023-07-18T04:17:12.817Z,100.00
2023-07-18T04:19:40.291Z,100.00
2023-07-18T04:22:07.764Z,99.02
2023-07-18T04:24:35.886Z,97.63
2023-07-18T04:27:03.159Z,96.73
2023-07-18T04:29:31.645Z,96.93
2023-07-18T04:32:00.092Z,95.77
2023-07-18T04:34:28.112Z,95.47
2023-07-18T04:36:55.159Z,96.16
2023-07-18T04:39:22.617Z,96.82
2023-07-18T04:41:55.585Z,94.25
2023-07-18T04:44:26.192Z,92.86
2023-07-18T04:46:56.498Z,91.19
2023-07-18T04:49:23.992Z,91.80
2023-07-18T04:51:52.789Z,90.53
2023-07-18T04:54:21.175Z,89.98
2023-07-18T04:56:48.352Z,88.13
2023-07-18T04:59:15.616Z,87.76
2023-07-18T05:01:42.750Z,86.36
2023-07-18T05:04:12.177Z,85.82
2023-07-18T05:06:39.443Z,83.13
2023-07-18T05:09:07.033Z,83.22
2023-07-18T05:11:35.485Z,83.96
2023-07-18T05:14:02.975Z,83.43
2023-07-18T05:16:30.375Z,83.27
2023-07-18T05:18:57.735Z,81.06
2023-07-18T05:21:25.200Z,82.29
2023-07-18T05:23:52.735Z,79.78
2023-07-18T05:26:20.208Z,78.42
2023-07-18T05:28:53.463Z,78.03
2023-07-18T05:31:21.348Z,76.82
2023-07-18T05:33:49.539Z,78.02
2023-07-18T05:36:17.797Z,77.42
2023-07-18T05:38:46.635Z,75.65
2023-07-18T05:41:13.836Z,73.05
2023-07-18T05:43:42.251Z,71.45
2023-07-18T05:46:10.962Z,71.85
2023-07-18T05:48:38.504Z,70.47
2023-07-18T05:51:06.032Z,69.39
2023-07-18T05:53:33.394Z,69.30
2023-07-18T05:56:00.875Z,69.24
2023-07-18T05:58:28.296Z,69.99
2023-07-18T06:00:55.865Z,67.75
2023-07-18T06:03:30.236Z,68.76
2023-07-18T06:05:57.391Z,67.92
2023-07-18T06:08:26.852Z,66.41
2023-07-18T06:11:00.531Z,67.35
2023-07-18T06:13:28.706Z,65.65
2023-07-18T06:15:57.014Z,65.30
2023-07-18T06:18:25.684Z,65.41
2023-07-18T06:20:52.848Z,64.88
2023-07-18T06:23:20.246Z,64.54
2023-07-18T06:25:47.904Z,64.49
2023-07-18T06:28:15.285Z,64.62
2023-07-18T06:30:55.881Z,62.92
2023-07-18T06:33:25.410Z,62.29
2023-07-18T06:35:57.180Z,62.80
2023-07-18T06:38:26.266Z,62.10
2023-07-18T06:40:54.526Z,61.58
2023-07-18T06:43:22.113Z,61.62
2023-07-18T06:45:49.728Z,62.14
2023-07-18T06:48:29.285Z,61.02
2023-07-18T06:51:08.145Z,60.97
2023-07-18T06:53:35.374Z,59.37
2023-07-18T06:56:02.858Z,61.02
2023-07-18T06:58:30.312Z,61.55
2023-07-18T07:00:58.065Z,61.44
2023-07-18T07:03:26.233Z,61.07
2023-07-18T07:05:55.336Z,60.31
2023-07-18T07:08:24.444Z,59.65
2023-07-18T07:11:03.682Z,59.31
2023-07-18T07:13:31.157Z,59.75
2023-07-18T07:16:05.403Z,60.36
2023-07-18T07:18:33.308Z,61.20
2023-07-18T07:21:01.763Z,59.68
2023-07-18T07:23:31.667Z,58.96
2023-07-18T07:25:59.708Z,56.72
2023-07-18T07:28:27.216Z,57.47
2023-07-18T07:30:55.919Z,58.02
2023-07-18T07:33:23.472Z,57.40
2023-07-18T07:35:51.057Z,56.89
2023-07-18T07:38:20.377Z,57.71
2023-07-18T07:40:47.823Z,56.31
2023-07-18T07:43:15.271Z,54.97
2023-07-18T07:45:44.814Z,54.55
2023-07-18T07:48:12.270Z,53.97
2023-07-18T07:50:40.788Z,54.63
2023-07-18T07:53:08.278Z,55.09
2023-07-18T07:55:35.609Z,54.97
2023-07-18T07:58:03.021Z,55.15
2023-07-18T08:00:30.515Z,54.45
2023-07-18T08:02:58.194Z,54.36
2023-07-18T08:05:26.547Z,53.18
2023-07-18T08:07:54.378Z,54.28
2023-07-18T08:10:21.958Z,54.10
2023-07-18T08:12:50.691Z,53.81
2023-07-18T08:15:20.987Z,54.63
2023-07-18T08:17:48.465Z,53.15
2023-07-18T08:20:15.922Z,53.07
2023-07-18T08:22:47.825Z,53.26
2023-07-18T08:25:19.394Z,52.91
2023-07-18T08:27:46.780Z,53.33
2023-07-18T08:30:14.468Z,53.12
2023-07-18T08:32:41.940Z,54.03
2023-07-18T08:35:10.807Z,53.01
2023-07-18T08:37:38.350Z,53.01
2023-07-18T08:40:06.689Z,51.26
2023-07-18T08:42:35.228Z,52.20
2023-07-18T08:45:15.335Z,52.88
2023-07-18T08:47:46.662Z,51.76
2023-07-18T08:50:14.066Z,50.98
2023-07-18T08:52:41.803Z,50.28
2023-07-18T08:55:10.609Z,51.46
2023-07-18T08:57:40.682Z,51.87
2023-07-18T09:00:09.297Z,50.78
2023-07-18T09:02:38.840Z,48.83
2023-07-18T09:05:06.684Z,50.02
2023-07-18T09:07:37.712Z,48.53
2023-07-18T09:10:05.745Z,49.19
2023-07-18T09:12:37.007Z,49.81
2023-07-18T09:15:04.694Z,48.68
2023-07-18T09:17:33.782Z,48.92
2023-07-18T09:20:08.887Z,48.56
2023-07-18T09:22:37.839Z,47.86
2023-07-18T09:25:05.793Z,49.35
2023-07-18T09:27:39.261Z,47.44
2023-07-18T09:30:09.889Z,47.39
2023-07-18T09:32:38.112Z,47.20
2023-07-18T09:35:06.214Z,47.22
2023-07-18T09:37:47.130Z,46.92
2023-07-18T09:40:19.284Z,45.40
2023-07-18T09:42:48.649Z,47.40
2023-07-18T09:45:18.532Z,46.09
2023-07-18T09:47:46.973Z,44.66
2023-07-18T09:50:15.392Z,45.41
2023-07-18T09:52:51.799Z,44.49
2023-07-18T09:55:29.764Z,46.38
2023-07-18T09:58:00.970Z,46.49
2023-07-18T10:00:31.505Z,44.71
2023-07-18T10:02:59.217Z,45.83
2023-07-18T10:05:27.811Z,45.03
2023-07-18T10:07:55.819Z,44.25
2023-07-18T10:10:24.414Z,41.87
2023-07-18T10:13:01.241Z,42.62
2023-07-18T10:15:30.135Z,40.77
2023-07-18T10:18:16.904Z,42.84
2023-07-18T10:20:59.173Z,42.70
2023-07-18T10:23:44.483Z,41.01
2023-07-18T10:26:12.062Z,42.13
2023-07-18T10:28:49.670Z,43.41
2023-07-18T10:31:40.420Z,40.81
2023-07-18T10:34:15.590Z,42.67
2023-07-18T10:36:56.663Z,41.16
2023-07-18T10:39:45.498Z,41.21
2023-07-18T10:42:22.184Z,41.45
2023-07-18T10:44:53.528Z,40.23
2023-07-18T10:47:21.280Z,38.74
2023-07-18T10:49:49.175Z,39.89
2023-07-18T10:52:18.024Z,39.33
2023-07-18T10:54:56.261Z,38.96
2023-07-18T10:57:35.676Z,39.28
2023-07-18T11:00:06.725Z,40.18
2023-07-18T11:02:43.256Z,38.13
2023-07-18T11:05:15.905Z,38.06
2023-07-18T11:07:45.493Z,36.39
2023-07-18T11:10:15.019Z,36.48
2023-07-18T11:12:43.821Z,34.90
2023-07-18T11:15:13.666Z,37.10
2023-07-18T11:17:43.553Z,36.95
2023-07-18T11:20:13.440Z,38.59
2023-07-18T11:22:42.100Z,37.71
2023-07-18T11:25:11.556Z,36.39
2023-07-18T11:27:39.942Z,36.25
2023-07-18T11:30:10.935Z,36.50
2023-07-18T11:32:41.714Z,36.50
2023-07-18T11:35:12.065Z,36.33
2023-07-18T11:37:44.461Z,35.00
2023-07-18T11:40:12.728Z,35.63
2023-07-18T11:42:52.348Z,34.38
2023-07-18T11:45:24.482Z,33.26
2023-07-18T11:47:56.930Z,32.97
2023-07-18T11:50:29.733Z,33.00
2023-07-18T11:52:59.133Z,32.84
2023-07-18T11:55:28.759Z,31.95
2023-07-18T11:57:57.287Z,33.47
2023-07-18T12:00:24.572Z,32.20
2023-07-18T12:02:53.741Z,31.87
2023-07-18T12:05:21.604Z,31.85
2023-07-18T12:07:49.894Z,31.99
2023-07-18T12:10:18.352Z,32.68
2023-07-18T12:12:45.904Z,32.63
2023-07-18T12:15:15.160Z,32.03
2023-07-18T12:17:43.123Z,33.34
2023-07-18T12:20:11.327Z,32.26
2023-07-18T12:22:39.429Z,31.20
2023-07-18T12:25:08.087Z,31.73
2023-07-18T12:27:35.570Z,29.68
2023-07-18T12:30:02.860Z,30.04
2023-07-18T12:32:42.806Z,29.89
2023-07-18T12:35:10.807Z,30.32
2023-07-18T12:37:38.446Z,30.71
2023-07-18T12:40:06.927Z,29.34
2023-07-18T12:42:34.600Z,30.77
2023-07-18T12:45:02.260Z,29.32
2023-07-18T12:47:29.790Z,30.64
2023-07-18T12:49:57.571Z,29.84
2023-07-18T12:52:25.200Z,28.38
2023-07-18T12:54:52.605Z,29.70
2023-07-18T12:57:20.082Z,30.09
2023-07-18T12:59:48.731Z,30.25
2023-07-18T13:02:16.582Z,30.58
2023-07-18T13:04:44.016Z,30.93
2023-07-18T13:07:11.711Z,29.92
2023-07-18T13:09:40.057Z,28.77
2023-07-18T13:12:08.429Z,28.96
2023-07-18T13:14:35.877Z,28.28
2023-07-18T13:17:03.393Z,27.64
2023-07-18T13:19:37.878Z,30.06
2023-07-18T13:22:05.583Z,29.91
2023-07-18T13:24:40.701Z,28.51
2023-07-18T13:27:08.035Z,28.54
2023-07-18T13:29:36.992Z,28.16
2023-07-18T13:32:05.493Z,27.75
2023-07-18T13:34:32.942Z,29.45
2023-07-18T13:37:00.282Z,27.54
2023-07-18T13:39:27.832Z,26.53
2023-07-18T13:41:55.409Z,26.59
2023-07-18T13:44:22.775Z,26.77
2023-07-18T13:46:52.069Z,27.86
2023-07-18T13:49:21.751Z,27.90
2023-07-18T13:51:51.143Z,28.99
2023-07-18T13:54:18.707Z,29.10
2023-07-18T13:56:47.132Z,30.42
2023-07-18T13:59:14.647Z,31.80
2023-07-18T14:01:41.761Z,32.38
2023-07-18T14:04:09.422Z,29.77
2023-07-18T14:06:36.992Z,28.47
2023-07-18T14:09:05.487Z,28.91
2023-07-18T14:11:33.133Z,28.87
2023-07-18T14:14:01.687Z,28.01
2023-07-18T14:16:42.768Z,27.99
2023-07-18T14:19:10.123Z,28.79
2023-07-18T14:21:37.653Z,30.57
2023-07-18T14:24:07.464Z,31.33
2023-07-18T14:26:35.033Z,30.50
2023-07-18T14:29:02.799Z,31.05
2023-07-18T14:31:31.362Z,29.92
2023-07-18T14:34:06.245Z,29.25
2023-07-18T14:36:35.271Z,28.11
2023-07-18T14:39:05.866Z,28.52
2023-07-18T14:41:33.199Z,27.50
2023-07-18T14:44:00.573Z,28.71
2023-07-18T14:46:28.378Z,27.96
2023-07-18T14:48:57.618Z,26.55
2023-07-18T14:51:25.087Z,27.40
2023-07-18T14:53:58.804Z,27.47
2023-07-18T14:56:38.837Z,28.66
2023-07-18T14:59:06.951Z,29.96
2023-07-18T15:01:39.051Z,28.17
2023-07-18T15:04:06.815Z,28.08
2023-07-18T15:06:35.481Z,28.75
2023-07-18T15:09:02.903Z,27.94
2023-07-18T15:11:30.570Z,29.43
2023-07-18T15:13:57.877Z,29.56
2023-07-18T15:16:26.515Z,28.32
2023-07-18T15:18:53.699Z,28.35
2023-07-18T15:21:20.873Z,27.93
2023-07-18T15:23:48.176Z,28.52
2023-07-18T15:26:16.080Z,29.16
2023-07-18T15:28:43.688Z,30.46
2023-07-18T15:31:11.306Z,28.91
2023-07-18T15:33:38.759Z,28.89
2023-07-18T15:36:06.286Z,28.36
2023-07-18T15:38:34.579Z,27.84
2023-07-18T15:41:02.156Z,28.37
2023-07-18T15:43:31.466Z,28.77
2023-07-18T15:45:59.113Z,27.50
2023-07-18T15:48:28.158Z,28.23
2023-07-18T15:50:55.605Z,29.94
2023-07-18T15:53:23.205Z,29.86
2023-07-18T15:55:52.946Z,30.61
2023-07-18T15:58:21.819Z,31.98
2023-07-18T16:00:50.641Z,32.07
2023-07-18T16:03:20.330Z,31.20
2023-07-18T16:05:48.106Z,33.17
2023-07-18T16:08:16.331Z,32.68
2023-07-18T16:10:43.442Z,32.44
2023-07-18T16:13:10.976Z,31.67
2023-07-18T16:15:38.521Z,32.05
2023-07-18T16:18:06.986Z,32.70
2023-07-18T16:20:34.523Z,32.95
2023-07-18T16:23:01.890Z,33.37
2023-07-18T16:25:29.336Z,33.48
2023-07-18T16:27:56.744Z,33.75
2023-07-18T16:30:25.284Z,33.51
2023-07-18T16:32:55.713Z,33.17
2023-07-18T16:35:24.563Z,33.05
2023-07-18T16:37:52.198Z,33.43
2023-07-18T16:40:22.095Z,33.43
2023-07-18T16:42:49.776Z,33.31
2023-07-18T16:45:17.316Z,33.72
2023-07-18T16:47:45.873Z,34.35
2023-07-18T16:50:13.067Z,34.32
2023-07-18T16:52:41.607Z,34.70
2023-07-18T16:55:09.916Z,36.05
2023-07-18T16:57:39.308Z,36.35
2023-07-18T17:00:07.563Z,36.30
2023-07-18T17:02:35.730Z,36.02
2023-07-18T17:05:10.066Z,36.79
2023-07-18T17:07:38.104Z,36.78
2023-07-18T17:10:06.196Z,37.04
2023-07-18T17:12:34.102Z,37.36
2023-07-18T17:15:02.042Z,37.62
2023-07-18T17:17:31.150Z,37.94
2023-07-18T17:20:07.570Z,38.34
2023-07-18T17:22:36.404Z,37.61
2023-07-18T17:25:05.176Z,38.35
2023-07-18T17:27:34.403Z,38.18
2023-07-18T17:30:06.494Z,39.14
2023-07-18T17:32:34.373Z,39.19
2023-07-18T17:35:04.015Z,39.57
2023-07-18T17:37:31.773Z,40.20
2023-07-18T17:40:02.042Z,41.06
2023-07-18T17:42:30.173Z,40.06
2023-07-18T17:44:58.485Z,39.40
2023-07-18T17:47:26.290Z,39.65
2023-07-18T17:49:59.243Z,39.78
2023-07-18T17:52:28.796Z,40.64
2023-07-18T17:54:56.617Z,40.80
2023-07-18T17:57:27.069Z,41.24
2023-07-18T17:59:55.690Z,42.00
2023-07-18T18:02:23.534Z,42.07
2023-07-18T18:04:51.191Z,42.28
2023-07-18T18:07:19.206Z,44.08
2023-07-18T18:09:46.804Z,43.97
2023-07-18T18:12:14.260Z,44.79
2023-07-18T18:14:51.312Z,45.74
2023-07-18T18:17:18.812Z,47.10
2023-07-18T18:19:47.805Z,46.73
2023-07-18T18:22:22.350Z,45.41
2023-07-18T18:24:49.984Z,45.55
2023-07-18T18:27:17.486Z,45.52
2023-07-18T18:29:44.661Z,46.27
2023-07-18T18:32:13.206Z,47.00
2023-07-18T18:34:52.996Z,47.87
2023-07-18T18:37:29.182Z,47.83
2023-07-18T18:39:57.532Z,48.49
2023-07-18T18:42:26.656Z,49.56
2023-07-18T18:45:01.249Z,48.49
2023-07-18T18:47:28.774Z,49.22
2023-07-18T18:49:58.555Z,49.39
2023-07-18T18:52:26.875Z,49.43
2023-07-18T18:55:08.535Z,47.09
2023-07-18T18:57:42.116Z,51.99
2023-07-18T19:00:11.396Z,52.14
2023-07-18T19:02:41.160Z,52.96
2023-07-18T19:05:09.787Z,53.14
2023-07-18T19:07:37.733Z,53.80
2023-07-18T19:10:07.020Z,54.80
2023-07-18T19:12:38.966Z,55.58
2023-07-18T19:15:07.191Z,55.68
2023-07-18T19:17:35.165Z,55.97
2023-07-18T19:20:03.382Z,56.76
2023-07-18T19:22:32.515Z,57.93
2023-07-18T19:25:00.357Z,58.44
2023-07-18T19:27:27.861Z,59.25
2023-07-18T19:29:55.784Z,60.33
2023-07-18T19:32:24.737Z,59.74
2023-07-18T19:34:52.905Z,60.57
2023-07-18T19:37:21.072Z,61.30
2023-07-18T19:39:50.320Z,60.35
2023-07-18T19:42:18.526Z,60.91
2023-07-18T19:44:48.402Z,66.69
2023-07-18T19:47:16.382Z,67.72
2023-07-18T19:49:45.386Z,69.70
2023-07-18T19:52:13.365Z,70.98
2023-07-18T19:54:41.026Z,73.92
2023-07-18T19:57:09.884Z,78.82
2023-07-18T19:59:39.746Z,81.32
2023-07-18T20:02:07.621Z,83.06
2023-07-18T20:04:35.953Z,85.35
2023-07-18T20:07:04.845Z,85.06
2023-07-18T20:09:32.292Z,83.61
2023-07-18T20:12:02.043Z,82.77
2023-07-18T20:14:29.836Z,81.42
2023-07-18T20:16:59.420Z,79.66
2023-07-18T20:19:28.857Z,79.22
2023-07-18T20:21:56.255Z,79.14
2023-07-18T20:24:23.636Z,79.10
2023-07-18T20:26:52.213Z,79.44
2023-07-18T20:29:19.675Z,80.08
2023-07-18T20:31:47.356Z,79.29
2023-07-18T20:34:15.919Z,79.70
2023-07-18T20:36:43.633Z,79.26
2023-07-18T20:39:11.229Z,79.58
2023-07-18T20:41:38.893Z,80.40
2023-07-18T20:44:07.036Z,80.47
2023-07-18T20:46:37.547Z,79.25
2023-07-18T20:49:08.320Z,81.51
2023-07-18T20:51:36.825Z,83.24
2023-07-18T20:54:06.678Z,84.80
2023-07-18T20:56:35.316Z,84.83
2023-07-18T20:59:06.807Z,84.73
2023-07-18T21:01:35.403Z,83.68
2023-07-18T21:04:03.122Z,83.44
2023-07-18T21:06:30.578Z,82.54
2023-07-18T21:09:01.555Z,81.79
2023-07-18T21:11:29.013Z,83.13
2023-07-18T21:13:56.384Z,83.21
2023-07-18T21:16:23.966Z,82.66
2023-07-18T21:18:53.426Z,82.45
2023-07-18T21:21:21.173Z,82.88
2023-07-18T21:23:49.055Z,83.71
2023-07-18T21:26:18.021Z,83.74
2023-07-18T21:29:01.919Z,86.06
2023-07-18T21:31:33.844Z,86.30
2023-07-18T21:34:02.566Z,85.93
2023-07-18T21:36:31.423Z,86.26
2023-07-18T21:38:59.731Z,87.17
2023-07-18T21:41:30.598Z,87.76
2023-07-18T21:43:58.791Z,88.02
2023-07-18T21:46:26.683Z,88.14
2023-07-18T21:48:55.087Z,87.96
2023-07-18T21:51:23.616Z,87.18
2023-07-18T21:53:50.706Z,89.58
2023-07-18T21:56:18.252Z,94.60
2023-07-18T21:58:45.758Z,94.72
2023-07-18T22:01:13.005Z,93.55
2023-07-18T22:03:41.631Z,93.91
2023-07-18T22:06:11.113Z,94.18
2023-07-18T22:08:40.572Z,94.51
2023-07-18T22:11:09.153Z,94.32
2023-07-18T22:13:36.630Z,96.28
2023-07-18T22:16:11.738Z,97.70
2023-07-18T22:18:43.242Z,97.29
2023-07-18T22:21:10.804Z,97.53
2023-07-18T22:23:38.911Z,96.36
2023-07-18T22:28:42.213Z,95.39
2023-07-18T22:31:12.327Z,94.54
2023-07-18T22:33:42.345Z,94.66
2023-07-18T22:36:10.080Z,96.45
2023-07-18T22:38:37.318Z,96.73
2023-07-18T22:41:04.771Z,97.03
2023-07-18T22:43:32.228Z,96.55
2023-07-18T22:45:59.635Z,96.00
2023-07-18T22:48:29.157Z,96.00
2023-07-18T22:50:59.097Z,95.97
2023-07-18T22:53:26.857Z,95.66
2023-07-18T22:55:54.017Z,95.53
2023-07-18T22:58:21.755Z,96.48
2023-07-18T23:00:51.033Z,97.66
2023-07-18T23:03:18.717Z,97.58
2023-07-18T23:05:45.902Z,97.99
2023-07-18T23:08:14.361Z,99.19
2023-07-18T23:10:41.899Z,100.00
2023-07-18T23:13:09.284Z,100.00
2023-07-18T23:15:36.867Z,100.00
2023-07-18T23:18:09.858Z,100.00
2023-07-18T23:20:37.560Z,100.00
2023-07-18T23:23:06.618Z,100.00
2023-07-18T23:25:33.997Z,100.00
2023-07-18T23:28:01.826Z,100.00
2023-07-18T23:30:29.667Z,100.00
2023-07-18T23:32:57.136Z,100.00
2023-07-18T23:35:27.876Z,100.00
2023-07-18T23:37:57.397Z,100.00
2023-07-18T23:40:24.663Z,100.00
2023-07-18T23:42:53.130Z,100.00
2023-07-18T23:45:20.916Z,100.00
2023-07-18T23:47:48.144Z,100.00
2023-07-18T23:50:15.496Z,100.00
2023-07-18T23:52:42.967Z,100.00
2023-07-18T23:55:10.440Z,100.00
2023-07-18T23:57:38.040Z,100.00
